createdAt,value
2022-12-09T00:01:31.343Z,-3.04
2022-12-09T00:03:58.752Z,-3.02
2022-12-09T00:06:28.076Z,-3.02
2022-12-09T00:08:56.613Z,-3.04
2022-12-09T00:11:24.879Z,-3.06
2022-12-09T00:13:53.274Z,-3.04
2022-12-09T00:16:21.180Z,-3.10
2022-12-09T00:18:47.916Z,-3.11
2022-12-09T00:21:15.272Z,-3.08
2022-12-09T00:23:41.955Z,-3.13
2022-12-09T00:26:08.558Z,-3.10
2022-12-09T00:28:35.297Z,-3.08
2022-12-09T00:31:02.641Z,-3.16
2022-12-09T00:33:34.091Z,-3.10
2022-12-09T00:36:09.857Z,-3.13
2022-12-09T00:38:37.262Z,-3.21
2022-12-09T00:41:04.583Z,-3.21
2022-12-09T00:43:31.255Z,-3.17
2022-12-09T00:45:58.174Z,-3.22
2022-12-09T00:48:26.213Z,-3.23
2022-12-09T00:50:52.931Z,-3.20
2022-12-09T00:53:19.606Z,-3.25
2022-12-09T00:55:46.315Z,-3.30
2022-12-09T00:58:14.047Z,-3.33
2022-12-09T01:00:41.032Z,-3.30
2022-12-09T01:03:12.823Z,-3.35
2022-12-09T01:05:40.358Z,-3.36
2022-12-09T01:08:06.972Z,-3.39
2022-12-09T01:10:34.418Z,-3.44
2022-12-09T01:13:01.172Z,-3.41
2022-12-09T01:15:27.913Z,-3.42
2022-12-09T01:17:54.686Z,-3.51
2022-12-09T01:20:21.282Z,-3.62
2022-12-09T01:22:47.758Z,-3.65
2022-12-09T01:25:14.664Z,-3.63
2022-12-09T01:27:41.897Z,-3.59
2022-12-09T01:30:11.915Z,-3.55
2022-12-09T01:32:38.818Z,-3.62
2022-12-09T01:35:06.181Z,-3.65
2022-12-09T01:37:34.158Z,-3.69
2022-12-09T01:40:00.837Z,-3.77
2022-12-09T01:42:27.660Z,-3.80
2022-12-09T01:45:22.071Z,-3.80
2022-12-09T01:47:52.736Z,-3.79
2022-12-09T01:50:19.576Z,-3.86
2022-12-09T01:52:47.558Z,-3.92
2022-12-09T01:55:14.665Z,-3.90
2022-12-09T01:57:42.974Z,-3.91
2022-12-09T02:00:10.391Z,-3.92
2022-12-09T02:02:38.296Z,-3.87
2022-12-09T02:05:05.980Z,-3.83
2022-12-09T02:07:33.444Z,-3.80
2022-12-09T02:10:00.286Z,-3.79
2022-12-09T02:12:46.847Z,-3.93
2022-12-09T02:15:30.827Z,-3.97
2022-12-09T02:18:01.803Z,-4.03
2022-12-09T02:20:38.816Z,-4.03
2022-12-09T02:23:12.212Z,-4.04
2022-12-09T02:26:07.382Z,-4.10
2022-12-09T02:28:52.697Z,-4.15
2022-12-09T02:31:40.786Z,-4.14
2022-12-09T02:34:22.257Z,-4.23
2022-12-09T02:37:16.971Z,-4.27
2022-12-09T02:40:05.777Z,-4.29
2022-12-09T02:42:35.863Z,-4.27
2022-12-09T02:45:06.300Z,-4.29
2022-12-09T02:47:36.851Z,-4.32
2022-12-09T02:50:08.654Z,-4.36
2022-12-09T02:52:35.926Z,-4.39
2022-12-09T02:55:07.027Z,-4.41
2022-12-09T02:57:36.036Z,-4.46
2022-12-09T03:00:04.909Z,-4.46
2022-12-09T03:02:35.929Z,-4.41
2022-12-09T03:05:24.532Z,-4.41
2022-12-09T03:08:46.739Z,-4.35
2022-12-09T03:11:18.696Z,-4.34
2022-12-09T03:14:04.495Z,-4.27
2022-12-09T03:16:36.054Z,-4.30
2022-12-09T03:19:20.706Z,-4.34
2022-12-09T03:21:50.006Z,-4.34
2022-12-09T03:24:20.827Z,-4.37
2022-12-09T03:26:48.212Z,-4.36
2022-12-09T03:29:19.873Z,-4.34
2022-12-09T03:31:48.643Z,-4.28
2022-12-09T03:34:20.037Z,-4.32
2022-12-09T03:36:49.364Z,-4.31
2022-12-09T03:39:20.459Z,-4.32
2022-12-09T03:41:55.650Z,-4.37
2022-12-09T03:44:30.630Z,-4.29
2022-12-09T03:46:57.783Z,-4.34
2022-12-09T03:49:24.290Z,-4.34
2022-12-09T03:51:57.342Z,-4.35
2022-12-09T03:54:40.855Z,-4.35
2022-12-09T03:57:17.031Z,-4.42
2022-12-09T03:59:51.485Z,-4.35
2022-12-09T04:02:18.503Z,-4.29
2022-12-09T04:04:45.177Z,-4.31
2022-12-09T04:07:11.922Z,-4.30
2022-12-09T04:09:38.834Z,-4.41
2022-12-09T04:12:05.587Z,-4.44
2022-12-09T04:14:32.303Z,-4.44
2022-12-09T04:16:59.408Z,-4.47
2022-12-09T04:19:26.135Z,-4.47
2022-12-09T04:21:52.788Z,-4.44
2022-12-09T04:24:19.540Z,-4.44
2022-12-09T04:26:46.815Z,-4.50
2022-12-09T04:29:13.825Z,-4.51
2022-12-09T04:31:40.593Z,-4.45
2022-12-09T04:34:09.953Z,-4.46
2022-12-09T04:36:37.318Z,-4.47
2022-12-09T04:39:04.220Z,-4.48
2022-12-09T04:41:31.018Z,-4.48
2022-12-09T04:43:57.586Z,-4.43
2022-12-09T04:46:24.161Z,-4.39
2022-12-09T04:48:50.796Z,-4.40
2022-12-09T04:51:18.281Z,-4.35
2022-12-09T04:53:45.217Z,-4.33
2022-12-09T04:56:16.529Z,-4.25
2022-12-09T04:58:43.031Z,-4.27
2022-12-09T05:01:13.230Z,-4.27
2022-12-09T05:03:40.591Z,-4.29
2022-12-09T05:06:11.007Z,-4.26
2022-12-09T05:08:38.599Z,-4.33
2022-12-09T05:11:06.239Z,-4.35
2022-12-09T05:13:33.734Z,-4.38
2022-12-09T05:16:09.290Z,-4.33
2022-12-09T05:18:38.941Z,-4.34
2022-12-09T05:21:09.929Z,-4.43
2022-12-09T05:23:37.149Z,-4.34
2022-12-09T05:26:10.051Z,-4.30
2022-12-09T05:28:37.203Z,-4.26
2022-12-09T05:31:06.436Z,-4.32
2022-12-09T05:33:33.579Z,-4.41
2022-12-09T05:36:00.660Z,-4.44
2022-12-09T05:38:27.600Z,-4.37
2022-12-09T05:40:54.733Z,-4.33
2022-12-09T05:43:21.193Z,-4.31
2022-12-09T05:45:47.903Z,-4.28
2022-12-09T05:48:14.856Z,-4.26
2022-12-09T05:50:41.672Z,-4.19
2022-12-09T05:53:08.492Z,-4.21
2022-12-09T05:55:35.087Z,-4.21
2022-12-09T05:58:02.105Z,-4.20
2022-12-09T06:00:28.626Z,-4.20
2022-12-09T06:02:55.609Z,-4.16
2022-12-09T06:05:22.847Z,-4.16
2022-12-09T06:07:49.844Z,-4.15
2022-12-09T06:10:17.369Z,-4.12
2022-12-09T06:12:44.235Z,-4.08
2022-12-09T06:15:12.756Z,-4.04
2022-12-09T06:17:42.547Z,-4.00
2022-12-09T06:20:09.918Z,-3.98
2022-12-09T06:22:36.983Z,-3.96
2022-12-09T06:25:04.549Z,-3.92
2022-12-09T06:27:31.423Z,-3.90
2022-12-09T06:29:58.347Z,-3.89
2022-12-09T06:32:25.256Z,-3.90
2022-12-09T06:34:52.251Z,-3.87
2022-12-09T06:37:18.854Z,-3.85
2022-12-09T06:39:45.732Z,-3.83
2022-12-09T06:42:12.635Z,-3.77
2022-12-09T06:44:38.949Z,-3.72
2022-12-09T06:47:06.823Z,-3.62
2022-12-09T06:49:33.737Z,-3.63
2022-12-09T06:52:00.628Z,-3.61
2022-12-09T06:54:27.832Z,-3.63
2022-12-09T06:56:54.496Z,-3.62
2022-12-09T06:59:21.235Z,-3.58
2022-12-09T07:01:47.891Z,-3.54
2022-12-09T07:04:15.041Z,-3.51
2022-12-09T07:06:44.481Z,-3.44
2022-12-09T07:09:13.908Z,-3.43
2022-12-09T07:11:40.960Z,-3.40
2022-12-09T07:14:07.600Z,-3.39
2022-12-09T07:16:35.101Z,-3.36
2022-12-09T07:19:02.802Z,-3.28
2022-12-09T07:21:29.777Z,-3.25
2022-12-09T07:24:00.239Z,-3.25
2022-12-09T07:26:26.917Z,-3.21
2022-12-09T07:28:53.777Z,-3.21
2022-12-09T07:31:22.234Z,-3.18
2022-12-09T07:33:49.993Z,-3.17
2022-12-09T07:36:20.969Z,-3.12
2022-12-09T07:38:48.293Z,-3.04
2022-12-09T07:41:14.855Z,-2.96
2022-12-09T07:43:41.607Z,-2.97
2022-12-09T07:46:08.615Z,-2.85
2022-12-09T07:48:36.008Z,-2.80
2022-12-09T07:51:04.159Z,-2.76
2022-12-09T07:53:35.244Z,-2.70
2022-12-09T07:56:06.671Z,-2.60
2022-12-09T07:58:34.272Z,-2.54
2022-12-09T08:01:08.881Z,-2.41
2022-12-09T08:03:36.712Z,-2.32
2022-12-09T08:06:04.277Z,-2.29
2022-12-09T08:08:32.984Z,-2.39
2022-12-09T08:11:13.787Z,-2.22
2022-12-09T08:13:41.143Z,-2.13
2022-12-09T08:16:10.790Z,-2.08
2022-12-09T08:18:38.200Z,-2.18
2022-12-09T08:21:07.545Z,-2.07
2022-12-09T08:23:34.400Z,-2.01
2022-12-09T08:26:01.793Z,-2.05
2022-12-09T08:28:29.869Z,-1.88
2022-12-09T08:30:57.370Z,-1.80
2022-12-09T08:33:25.407Z,-1.77
2022-12-09T08:35:52.391Z,-1.71
2022-12-09T08:38:19.187Z,-1.67
2022-12-09T08:40:46.331Z,-1.73
2022-12-09T08:43:12.862Z,-1.78
2022-12-09T08:45:42.410Z,-1.61
2022-12-09T08:48:09.579Z,-1.57
2022-12-09T08:50:36.354Z,-1.61
2022-12-09T08:53:03.270Z,-1.60
2022-12-09T08:55:30.143Z,-1.34
2022-12-09T08:57:57.320Z,-1.37
2022-12-09T09:00:24.249Z,-1.47
2022-12-09T09:02:51.050Z,-1.43
2022-12-09T09:05:18.720Z,-1.32
2022-12-09T09:07:45.782Z,-1.32
2022-12-09T09:10:13.390Z,-1.31
2022-12-09T09:12:43.613Z,-1.23
2022-12-09T09:15:11.625Z,-1.22
2022-12-09T09:17:38.626Z,-1.22
2022-12-09T09:20:06.234Z,-1.10
2022-12-09T09:22:35.307Z,-0.98
2022-12-09T09:25:02.341Z,-0.86
2022-12-09T09:27:29.212Z,-0.77
2022-12-09T09:29:55.769Z,-0.79
2022-12-09T09:32:22.436Z,-0.67
2022-12-09T09:34:49.368Z,-0.69
2022-12-09T09:37:17.130Z,-0.75
2022-12-09T09:39:43.926Z,-0.66
2022-12-09T09:42:17.269Z,-0.55
2022-12-09T09:44:45.485Z,-0.44
2022-12-09T09:47:16.808Z,-0.42
2022-12-09T09:50:00.763Z,-0.33
2022-12-09T09:52:29.798Z,-0.46
2022-12-09T09:54:57.871Z,-0.45
2022-12-09T09:57:33.305Z,-0.41
2022-12-09T10:00:15.745Z,-0.49
2022-12-09T10:02:51.415Z,-0.40
2022-12-09T10:05:30.419Z,-0.36
2022-12-09T10:08:20.917Z,-0.44
2022-12-09T10:11:13.389Z,-0.47
2022-12-09T10:13:48.421Z,-0.21
2022-12-09T10:16:27.980Z,-0.12
2022-12-09T10:19:09.785Z,-0.07
2022-12-09T10:21:41.540Z,0.09
2022-12-09T10:24:20.601Z,0.10
2022-12-09T10:26:57.072Z,0.04
2022-12-09T10:29:35.742Z,0.08
2022-12-09T10:32:02.816Z,0.00
2022-12-09T10:34:30.315Z,0.09
2022-12-09T10:36:57.224Z,0.14
2022-12-09T10:39:23.604Z,0.15
2022-12-09T10:41:57.242Z,-0.01
2022-12-09T10:44:25.507Z,-0.06
2022-12-09T10:47:06.487Z,-0.02
2022-12-09T10:49:35.912Z,0.10
2022-12-09T10:52:03.097Z,0.35
2022-12-09T10:54:36.499Z,0.49
2022-12-09T10:57:12.495Z,0.52
2022-12-09T10:59:40.861Z,0.64
2022-12-09T11:02:10.319Z,0.70
2022-12-09T11:04:40.562Z,0.77
2022-12-09T11:07:07.566Z,0.70
2022-12-09T11:09:37.852Z,0.83
2022-12-09T11:12:07.636Z,0.95
2022-12-09T11:14:40.545Z,0.99
2022-12-09T11:17:31.615Z,0.98
2022-12-09T11:20:17.637Z,1.06
2022-12-09T11:22:45.892Z,1.19
2022-12-09T11:25:13.000Z,1.13
2022-12-09T11:27:41.469Z,0.98
2022-12-09T11:30:30.747Z,0.97
2022-12-09T11:33:06.243Z,1.01
2022-12-09T11:35:45.104Z,1.07
2022-12-09T11:38:34.602Z,1.08
2022-12-09T11:41:03.379Z,1.10
2022-12-09T11:43:35.251Z,0.99
2022-12-09T11:46:26.680Z,0.91
2022-12-09T11:48:55.445Z,0.94
2022-12-09T11:51:28.749Z,1.02
2022-12-09T11:54:18.875Z,1.14
2022-12-09T11:56:45.366Z,0.98
2022-12-09T11:59:15.207Z,1.07
2022-12-09T12:02:12.012Z,1.08
2022-12-09T12:04:46.413Z,1.17
2022-12-09T12:07:32.311Z,1.23
2022-12-09T12:09:58.843Z,1.18
2022-12-09T12:12:37.511Z,1.34
2022-12-09T12:15:16.454Z,1.23
2022-12-09T12:17:50.148Z,1.31
2022-12-09T12:20:16.676Z,1.39
2022-12-09T12:23:06.772Z,1.36
2022-12-09T12:25:44.527Z,1.32
2022-12-09T12:28:32.040Z,1.30
2022-12-09T12:31:27.410Z,1.15
2022-12-09T12:34:24.097Z,1.20
2022-12-09T12:37:43.208Z,1.27
2022-12-09T12:40:40.150Z,1.26
2022-12-09T12:43:27.797Z,1.38
2022-12-09T12:46:04.186Z,1.32
2022-12-09T12:49:15.857Z,1.36
2022-12-09T12:51:55.193Z,1.33
2022-12-09T12:54:30.438Z,1.29
2022-12-09T12:56:56.966Z,1.27
2022-12-09T12:59:56.263Z,1.27
2022-12-09T13:02:39.409Z,1.28
2022-12-09T13:05:22.113Z,1.29
2022-12-09T13:08:01.893Z,1.21
2022-12-09T13:10:40.375Z,1.16
2022-12-09T13:13:18.683Z,1.21
2022-12-09T13:15:50.137Z,1.17
2022-12-09T13:18:23.042Z,1.04
2022-12-09T13:20:58.160Z,1.01
2022-12-09T13:23:43.308Z,0.94
2022-12-09T13:26:39.767Z,0.92
2022-12-09T13:29:06.721Z,0.91
2022-12-09T13:31:36.820Z,0.96
2022-12-09T13:34:18.519Z,0.94
2022-12-09T13:36:47.732Z,0.92
2022-12-09T13:39:39.137Z,0.88
2022-12-09T13:42:25.891Z,0.87
2022-12-09T13:45:05.593Z,0.86
2022-12-09T13:47:36.467Z,0.89
2022-12-09T13:50:05.696Z,0.92
2022-12-09T13:52:46.536Z,0.96
2022-12-09T13:55:47.115Z,1.00
2022-12-09T13:58:35.219Z,1.11
2022-12-09T14:01:04.677Z,1.10
2022-12-09T14:03:35.693Z,1.02
2022-12-09T14:06:15.614Z,1.01
2022-12-09T14:08:48.804Z,1.07
2022-12-09T14:11:36.990Z,1.07
2022-12-09T14:14:24.660Z,1.09
2022-12-09T14:16:56.935Z,1.07
2022-12-09T14:19:26.058Z,1.07
2022-12-09T14:22:17.708Z,0.98
2022-12-09T14:24:51.762Z,0.86
2022-12-09T14:27:32.139Z,0.95
2022-12-09T14:30:18.822Z,0.80
2022-12-09T14:32:56.010Z,0.82
2022-12-09T14:35:46.278Z,0.87
2022-12-09T14:39:22.465Z,0.94
2022-12-09T14:42:03.455Z,0.75
2022-12-09T14:45:03.071Z,0.59
2022-12-09T14:47:32.874Z,0.52
2022-12-09T14:50:14.478Z,0.45
2022-12-09T14:53:00.524Z,0.50
2022-12-09T14:55:29.013Z,0.38
2022-12-09T14:57:58.246Z,0.35
2022-12-09T15:00:37.033Z,0.32
2022-12-09T15:03:39.389Z,0.31
2022-12-09T15:06:13.098Z,0.23
2022-12-09T15:08:41.261Z,0.21
2022-12-09T15:11:18.245Z,0.12
2022-12-09T15:13:47.878Z,0.18
2022-12-09T15:16:18.092Z,0.22
2022-12-09T15:18:45.405Z,0.14
2022-12-09T15:21:26.349Z,0.08
2022-12-09T15:23:52.842Z,0.12
2022-12-09T15:26:19.428Z,0.16
2022-12-09T15:28:50.667Z,0.18
2022-12-09T15:31:22.473Z,0.18
2022-12-09T15:33:51.586Z,0.25
2022-12-09T15:36:38.828Z,0.23
2022-12-09T15:39:07.514Z,0.22
2022-12-09T15:41:38.505Z,0.25
2022-12-09T15:44:11.132Z,0.27
2022-12-09T15:46:41.735Z,0.32
2022-12-09T15:49:11.904Z,0.32
2022-12-09T15:51:42.500Z,0.32
2022-12-09T15:54:14.786Z,0.25
2022-12-09T15:56:48.946Z,0.19
2022-12-09T15:59:37.069Z,0.17
2022-12-09T16:02:03.997Z,0.18
2022-12-09T16:04:37.935Z,0.16
2022-12-09T16:07:06.202Z,0.19
2022-12-09T16:09:32.948Z,0.14
2022-12-09T16:11:59.680Z,0.13
2022-12-09T16:14:26.342Z,0.16
2022-12-09T16:17:03.723Z,0.19
2022-12-09T16:19:33.120Z,0.22
2022-12-09T16:22:09.180Z,0.26
2022-12-09T16:25:13.132Z,0.28
2022-12-09T16:27:33.438Z,0.28
2022-12-09T16:30:12.615Z,0.28
2022-12-09T16:32:47.425Z,0.23
2022-12-09T16:35:16.846Z,0.27
2022-12-09T16:38:12.500Z,0.22
2022-12-09T16:40:45.175Z,0.19
2022-12-09T16:43:17.277Z,0.19
2022-12-09T16:46:05.035Z,0.21
2022-12-09T16:48:31.464Z,0.16
2022-12-09T16:51:10.926Z,0.21
2022-12-09T16:53:49.599Z,0.23
2022-12-09T16:56:27.957Z,0.22
2022-12-09T16:58:54.612Z,0.18
2022-12-09T17:01:24.546Z,0.13
2022-12-09T17:03:56.111Z,0.13
2022-12-09T17:06:22.438Z,0.13
2022-12-09T17:08:48.780Z,0.16
2022-12-09T17:11:15.227Z,0.22
2022-12-09T17:13:41.599Z,0.23
2022-12-09T17:16:08.535Z,0.28
2022-12-09T17:18:35.182Z,0.33
2022-12-09T17:21:19.728Z,0.32
2022-12-09T17:23:46.882Z,0.32
2022-12-09T17:26:15.828Z,0.28
2022-12-09T17:28:43.269Z,0.16
2022-12-09T17:31:13.150Z,0.18
2022-12-09T17:33:39.897Z,0.21
2022-12-09T17:36:07.256Z,0.21
2022-12-09T17:38:33.996Z,0.21
2022-12-09T17:41:09.247Z,0.19
2022-12-09T17:43:36.054Z,0.21
2022-12-09T17:46:04.752Z,0.19
2022-12-09T17:48:32.807Z,0.18
2022-12-09T17:50:59.208Z,0.19
2022-12-09T17:53:25.526Z,0.18
2022-12-09T17:55:51.850Z,0.17
2022-12-09T17:58:18.229Z,0.14
2022-12-09T18:00:44.715Z,0.15
2022-12-09T18:03:17.912Z,0.15
2022-12-09T18:05:48.680Z,0.17
2022-12-09T18:08:15.386Z,0.16
2022-12-09T18:10:41.809Z,0.18
2022-12-09T18:13:08.195Z,0.19
2022-12-09T18:15:36.564Z,0.27
2022-12-09T18:18:03.120Z,0.28
2022-12-09T18:20:29.563Z,0.23
2022-12-09T18:22:55.891Z,0.23
2022-12-09T18:25:22.219Z,0.28
2022-12-09T18:27:48.548Z,0.29
2022-12-09T18:30:14.872Z,0.24
2022-12-09T18:32:41.283Z,0.23
2022-12-09T18:35:08.009Z,0.24
2022-12-09T18:37:34.340Z,0.18
2022-12-09T18:40:00.854Z,0.13
2022-12-09T18:42:27.493Z,0.09
2022-12-09T18:44:54.226Z,0.05
2022-12-09T18:47:20.678Z,0.12
2022-12-09T18:49:47.191Z,0.17
2022-12-09T18:52:13.947Z,0.22
2022-12-09T18:54:40.550Z,0.23
2022-12-09T18:57:07.222Z,0.17
2022-12-09T18:59:33.623Z,0.14
2022-12-09T19:01:59.948Z,0.16
2022-12-09T19:04:28.676Z,0.14
2022-12-09T19:06:57.760Z,0.21
2022-12-09T19:09:30.372Z,0.19
2022-12-09T19:11:56.781Z,0.15
2022-12-09T19:14:23.738Z,0.19
2022-12-09T19:16:51.728Z,0.30
2022-12-09T19:19:22.636Z,0.26
2022-12-09T19:21:49.967Z,0.20
2022-12-09T19:24:22.437Z,0.18
2022-12-09T19:26:49.262Z,0.18
2022-12-09T19:29:16.151Z,0.17
2022-12-09T19:31:46.185Z,0.18
2022-12-09T19:34:16.070Z,0.19
2022-12-09T19:36:44.038Z,0.19
2022-12-09T19:39:12.163Z,0.18
2022-12-09T19:41:38.921Z,0.21
2022-12-09T19:44:05.730Z,0.18
2022-12-09T19:46:33.511Z,0.21
2022-12-09T19:49:00.596Z,0.21
2022-12-09T19:51:27.525Z,0.27
2022-12-09T19:53:56.270Z,0.28
2022-12-09T19:56:23.440Z,0.32
2022-12-09T19:58:50.437Z,0.32
2022-12-09T20:01:23.824Z,0.27
2022-12-09T20:04:13.647Z,0.20
2022-12-09T20:06:48.871Z,0.17
2022-12-09T20:09:17.184Z,0.14
2022-12-09T20:11:43.992Z,0.16
2022-12-09T20:14:13.153Z,0.19
2022-12-09T20:16:39.894Z,0.19
2022-12-09T20:19:06.459Z,0.24
2022-12-09T20:21:32.860Z,0.18
2022-12-09T20:24:01.365Z,0.16
2022-12-09T20:26:29.930Z,0.12
2022-12-09T20:28:57.889Z,0.12
2022-12-09T20:31:26.766Z,0.10
2022-12-09T20:34:01.704Z,0.11
2022-12-09T20:36:30.810Z,0.14
2022-12-09T20:38:59.858Z,0.11
2022-12-09T20:41:27.322Z,0.12
2022-12-09T20:43:59.274Z,0.13
2022-12-09T20:46:32.785Z,0.14
2022-12-09T20:49:00.757Z,0.13
2022-12-09T20:51:37.521Z,0.15
2022-12-09T20:54:04.572Z,0.17
2022-12-09T20:56:31.741Z,0.18
2022-12-09T20:58:58.633Z,0.13
2022-12-09T21:01:30.135Z,0.09
2022-12-09T21:03:58.463Z,0.10
2022-12-09T21:06:27.622Z,0.14
2022-12-09T21:08:53.953Z,0.14
2022-12-09T21:11:22.906Z,0.17
2022-12-09T21:13:51.881Z,0.19
2022-12-09T21:16:24.017Z,0.21
2022-12-09T21:18:51.848Z,0.22
2022-12-09T21:21:19.402Z,0.24
2022-12-09T21:23:46.826Z,0.25
2022-12-09T21:26:18.220Z,0.24
2022-12-09T21:28:46.299Z,0.21
2022-12-09T21:31:24.527Z,0.21
2022-12-09T21:33:53.243Z,0.24
2022-12-09T21:36:28.999Z,0.25
2022-12-09T21:38:55.985Z,0.19
2022-12-09T21:41:25.100Z,0.22
2022-12-09T21:43:52.295Z,0.22
2022-12-09T21:46:20.919Z,0.22
2022-12-09T21:48:52.040Z,0.26
2022-12-09T21:51:19.570Z,0.29
2022-12-09T21:53:46.280Z,0.27
2022-12-09T21:56:20.482Z,0.25
2022-12-09T21:58:49.058Z,0.26
2022-12-09T22:01:24.980Z,0.31
2022-12-09T22:03:51.855Z,0.31
2022-12-09T22:06:18.543Z,0.29
2022-12-09T22:08:45.623Z,0.24
2022-12-09T22:11:13.731Z,0.28
2022-12-09T22:13:40.367Z,0.23
2022-12-09T22:16:07.616Z,0.25
2022-12-09T22:18:34.534Z,0.31
2022-12-09T22:21:24.822Z,0.31
2022-12-09T22:23:58.031Z,0.31
2022-12-09T22:26:25.272Z,0.33
2022-12-09T22:28:52.193Z,0.36
2022-12-09T22:31:24.025Z,0.38
2022-12-09T22:33:52.781Z,0.40
2022-12-09T22:36:19.728Z,0.42
2022-12-09T22:38:46.717Z,0.41
2022-12-09T22:41:16.660Z,0.42
2022-12-09T22:43:43.556Z,0.39
2022-12-09T22:46:11.347Z,0.37
2022-12-09T22:48:39.398Z,0.42
2022-12-09T22:51:08.647Z,0.39
2022-12-09T22:53:35.385Z,0.40
2022-12-09T22:56:01.955Z,0.43
2022-12-09T22:58:28.511Z,0.40
2022-12-09T23:00:55.339Z,0.40
2022-12-09T23:03:21.737Z,0.35
2022-12-09T23:05:48.188Z,0.42
2022-12-09T23:08:14.976Z,0.42
2022-12-09T23:10:42.065Z,0.38
2022-12-09T23:13:08.680Z,0.39
2022-12-09T23:15:35.323Z,0.39
2022-12-09T23:18:01.882Z,0.39
2022-12-09T23:20:28.653Z,0.35
2022-12-09T23:22:55.187Z,0.31
2022-12-09T23:25:21.540Z,0.31
2022-12-09T23:27:47.852Z,0.31
2022-12-09T23:30:14.294Z,0.30
2022-12-09T23:32:40.656Z,0.29
2022-12-09T23:35:07.772Z,0.27
2022-12-09T23:37:34.327Z,0.27
2022-12-09T23:40:00.695Z,0.27
2022-12-09T23:42:27.098Z,0.26
2022-12-09T23:44:53.445Z,0.26
2022-12-09T23:47:19.872Z,0.23
2022-12-09T23:49:46.155Z,0.25
2022-12-09T23:52:12.484Z,0.22
2022-12-09T23:54:39.268Z,0.24
2022-12-09T23:57:05.667Z,0.22
2022-12-09T23:59:32.414Z,0.23
